Terminal Aerodrome Forecast
Issued by NWS

Home | Current Version | Previous Version | Text Only | Print | Product List | Glossary On
Versions: 1 2 3 4 5 6 7 8 9 10 11 12 13 14 15 16 17 18 19 20
000
FTUS41 KPBZ 011700
TAFFKL
TAF
KFKL 011730Z 0118/0218 21006KT 2SM -SN OVC009
      TEMPO 0118/0121 1SM -SN OVC005
     FM020300 27010KT 3SM -SN OVC010
     FM020700 28010KT 6SM -SN OVC015
     FM021300 28007KT P6SM OVC020
      AMD LTD TO CLD VIS AND WIND=

USA.gov is the U.S. government's official web portal to all federal, state and local government web resources and services.